createdAt,value
2023-04-10T00:01:10.799Z,21.20
2023-04-10T00:03:38.276Z,21.10
2023-04-10T00:06:08.378Z,21.10
2023-04-10T00:08:35.462Z,21.10
2023-04-10T00:11:02.502Z,21.10
2023-04-10T00:13:30.580Z,21.00
2023-04-10T00:15:58.224Z,20.90
2023-04-10T00:18:25.452Z,20.90
2023-04-10T00:20:52.594Z,20.90
2023-04-10T00:23:19.626Z,21.00
2023-04-10T00:25:48.653Z,21.10
2023-04-10T00:28:17.330Z,21.10
2023-04-10T00:30:44.385Z,21.00
2023-04-10T00:33:11.389Z,21.10
2023-04-10T00:35:38.454Z,21.10
2023-04-10T00:38:05.549Z,21.10
2023-04-10T00:40:32.704Z,21.10
2023-04-10T00:42:59.872Z,21.00
2023-04-10T00:45:28.363Z,20.90
2023-04-10T00:47:56.200Z,20.80
2023-04-10T00:50:23.374Z,20.90
2023-04-10T00:52:52.068Z,20.80
2023-04-10T00:55:19.569Z,20.90
2023-04-10T00:57:48.831Z,20.90
2023-04-10T01:00:16.800Z,20.80
2023-04-10T01:02:44.081Z,20.60
2023-04-10T01:05:13.319Z,20.60
2023-04-10T01:08:01.689Z,20.60
2023-04-10T01:10:29.122Z,20.50
2023-04-10T01:13:06.590Z,20.40
2023-04-10T01:15:52.401Z,20.40
2023-04-10T01:18:34.333Z,20.40
2023-04-10T01:21:03.765Z,20.60
2023-04-10T01:23:52.506Z,21.10
2023-04-10T01:26:42.602Z,20.50
2023-04-10T01:29:15.274Z,20.50
2023-04-10T01:32:10.599Z,20.60
2023-04-10T01:34:44.106Z,20.50
2023-04-10T01:37:42.286Z,20.50
2023-04-10T01:40:14.377Z,20.40
2023-04-10T01:43:02.540Z,20.40
2023-04-10T01:45:30.057Z,20.40
2023-04-10T01:47:57.883Z,20.40
2023-04-10T01:50:29.298Z,20.30
2023-04-10T01:52:57.581Z,20.30
2023-04-10T01:55:26.266Z,20.40
2023-04-10T01:57:53.624Z,20.40
2023-04-10T02:00:20.843Z,20.50
2023-04-10T02:02:48.054Z,20.50
2023-04-10T02:05:17.125Z,20.50
2023-04-10T02:07:55.420Z,20.40
2023-04-10T02:10:36.563Z,20.40
2023-04-10T02:13:06.752Z,20.40
2023-04-10T02:15:36.694Z,20.50
2023-04-10T02:18:06.699Z,20.50
2023-04-10T02:20:34.645Z,21.10
2023-04-10T02:23:04.075Z,20.60
2023-04-10T02:25:34.976Z,20.60
2023-04-10T02:28:06.113Z,20.60
2023-04-10T02:30:35.609Z,20.60
2023-04-10T02:33:03.208Z,20.70
2023-04-10T02:35:30.791Z,20.70
2023-04-10T02:37:57.930Z,20.70
2023-04-10T02:40:25.026Z,20.70
2023-04-10T02:42:52.458Z,20.70
2023-04-10T02:45:19.613Z,20.60
2023-04-10T02:47:46.739Z,20.50
2023-04-10T02:50:13.928Z,20.50
2023-04-10T02:52:42.127Z,20.60
2023-04-10T02:55:09.562Z,20.60
2023-04-10T02:57:37.106Z,20.50
2023-04-10T03:00:06.239Z,20.50
2023-04-10T03:02:33.694Z,20.60
2023-04-10T03:05:02.526Z,20.50
2023-04-10T03:07:29.530Z,20.40
2023-04-10T03:09:56.664Z,20.40
2023-04-10T03:12:23.876Z,20.30
2023-04-10T03:14:53.003Z,20.30
2023-04-10T03:17:20.035Z,20.20
2023-04-10T03:19:47.130Z,20.10
2023-04-10T03:22:14.312Z,20.00
2023-04-10T03:24:41.415Z,20.00
2023-04-10T03:27:08.459Z,20.00
2023-04-10T03:29:35.538Z,20.00
2023-04-10T03:32:02.746Z,20.20
2023-04-10T03:34:30.038Z,20.10
2023-04-10T03:36:56.992Z,20.00
2023-04-10T03:39:24.816Z,20.10
2023-04-10T03:41:52.040Z,20.20
2023-04-10T03:44:19.481Z,20.20
2023-04-10T03:46:46.493Z,20.20
2023-04-10T03:49:13.550Z,20.20
2023-04-10T03:51:41.931Z,20.20
2023-04-10T03:54:08.882Z,20.20
2023-04-10T03:56:38.547Z,20.40
2023-04-10T03:59:05.507Z,20.70
2023-04-10T04:01:34.124Z,21.00
2023-04-10T04:04:01.485Z,21.00
2023-04-10T04:06:28.887Z,20.70
2023-04-10T04:08:55.866Z,20.50
2023-04-10T04:11:22.944Z,20.40
2023-04-10T04:13:50.034Z,20.20
2023-04-10T04:16:17.149Z,20.10
2023-04-10T04:18:44.456Z,20.00
2023-04-10T04:21:11.621Z,19.90
2023-04-10T04:23:38.587Z,19.90
2023-04-10T04:26:05.882Z,19.80
2023-04-10T04:28:33.085Z,19.90
2023-04-10T04:31:00.105Z,20.00
2023-04-10T04:33:27.099Z,20.00
2023-04-10T04:35:54.163Z,20.20
2023-04-10T04:38:21.228Z,20.60
2023-04-10T04:40:48.203Z,20.60
2023-04-10T04:43:15.442Z,20.50
2023-04-10T04:45:42.467Z,20.90
2023-04-10T04:48:09.761Z,20.90
2023-04-10T04:50:36.813Z,21.00
2023-04-10T04:53:04.937Z,21.30
2023-04-10T04:55:32.979Z,21.00
2023-04-10T04:58:00.126Z,20.60
2023-04-10T05:00:27.126Z,20.70
2023-04-10T05:02:54.137Z,20.50
2023-04-10T05:05:21.361Z,20.40
2023-04-10T05:07:48.333Z,20.40
2023-04-10T05:10:15.584Z,20.40
2023-04-10T05:12:43.333Z,20.20
2023-04-10T05:15:10.888Z,20.30
2023-04-10T05:17:37.972Z,20.20
2023-04-10T05:20:05.483Z,20.00
2023-04-10T05:22:32.862Z,20.20
2023-04-10T05:25:00.199Z,20.20
2023-04-10T05:27:27.396Z,20.20
2023-04-10T05:29:54.458Z,20.40
2023-04-10T05:32:21.460Z,20.20
2023-04-10T05:34:48.505Z,20.30
2023-04-10T05:37:15.503Z,20.60
2023-04-10T05:39:42.644Z,20.80
2023-04-10T05:42:09.679Z,20.80
2023-04-10T05:44:36.690Z,20.40
2023-04-10T05:47:03.726Z,20.20
2023-04-10T05:49:30.856Z,20.00
2023-04-10T05:51:58.051Z,19.80
2023-04-10T05:54:25.015Z,19.70
2023-04-10T05:56:52.080Z,19.90
2023-04-10T05:59:19.142Z,19.80
2023-04-10T06:01:47.572Z,19.70
2023-04-10T06:04:15.033Z,19.60
2023-04-10T06:06:42.469Z,19.50
2023-04-10T06:09:09.733Z,19.20
2023-04-10T06:11:36.830Z,19.30
2023-04-10T06:14:03.885Z,19.10
2023-04-10T06:16:31.054Z,19.40
2023-04-10T06:18:58.904Z,19.30
2023-04-10T06:21:26.960Z,19.70
2023-04-10T06:23:54.579Z,19.30
2023-04-10T06:26:21.885Z,19.70
2023-04-10T06:28:49.049Z,19.20
2023-04-10T06:31:16.737Z,19.60
2023-04-10T06:33:43.773Z,19.80
2023-04-10T06:36:10.922Z,19.40
2023-04-10T06:38:38.063Z,20.00
2023-04-10T06:41:08.417Z,19.90
2023-04-10T06:43:36.452Z,19.50
2023-04-10T06:46:07.035Z,19.40
2023-04-10T06:48:34.154Z,19.80
2023-04-10T06:51:01.292Z,19.50
2023-04-10T06:53:28.606Z,20.00
2023-04-10T06:55:55.706Z,19.90
2023-04-10T06:58:23.024Z,20.20
2023-04-10T07:00:50.135Z,19.60
2023-04-10T07:03:17.495Z,19.70
2023-04-10T07:05:46.888Z,19.50
2023-04-10T07:08:13.886Z,18.60
2023-04-10T07:10:41.077Z,18.80
2023-04-10T07:13:09.277Z,19.80
2023-04-10T07:15:36.837Z,20.10
2023-04-10T07:18:03.944Z,19.60
2023-04-10T07:20:30.986Z,19.20
2023-04-10T07:22:58.178Z,18.90
2023-04-10T07:25:25.432Z,18.50
2023-04-10T07:27:53.441Z,18.40
2023-04-10T07:30:20.573Z,18.30
2023-04-10T07:32:47.786Z,18.20
2023-04-10T07:35:15.127Z,18.20
2023-04-10T07:37:44.052Z,18.10
2023-04-10T07:40:11.568Z,18.10
2023-04-10T07:42:38.645Z,18.20
2023-04-10T07:45:06.675Z,18.50
2023-04-10T07:47:33.699Z,18.60
2023-04-10T07:50:00.971Z,18.90
2023-04-10T07:52:27.958Z,19.00
2023-04-10T07:54:54.933Z,18.60
2023-04-10T07:57:22.034Z,18.90
2023-04-10T07:59:49.025Z,18.70
2023-04-10T08:02:16.292Z,18.60
2023-04-10T08:04:43.499Z,18.90
2023-04-10T08:07:10.545Z,18.50
2023-04-10T08:09:37.532Z,18.40
2023-04-10T08:12:04.857Z,18.10
2023-04-10T08:14:31.889Z,18.00
2023-04-10T08:16:58.932Z,18.10
2023-04-10T08:19:25.961Z,17.80
2023-04-10T08:21:53.071Z,18.10
2023-04-10T08:24:23.009Z,17.60
2023-04-10T08:26:50.092Z,17.40
2023-04-10T08:29:17.191Z,17.50
2023-04-10T08:31:45.636Z,16.60
2023-04-10T08:34:12.612Z,16.90
2023-04-10T08:36:39.652Z,17.30
2023-04-10T08:39:06.803Z,17.00
2023-04-10T08:41:33.839Z,16.90
2023-04-10T08:44:00.990Z,17.10
2023-04-10T08:46:31.814Z,16.70
2023-04-10T08:49:02.759Z,16.40
2023-04-10T08:52:02.215Z,16.30
2023-04-10T08:54:32.928Z,16.80
2023-04-10T08:57:01.753Z,16.60
2023-04-10T08:59:32.588Z,16.10
2023-04-10T09:02:00.148Z,16.50
2023-04-10T09:04:27.621Z,16.40
2023-04-10T09:06:54.864Z,15.90
2023-04-10T09:09:21.832Z,16.10
2023-04-10T09:12:00.969Z,15.60
2023-04-10T09:14:30.904Z,16.30
2023-04-10T09:17:17.422Z,15.80
2023-04-10T09:19:50.011Z,15.80
2023-04-10T09:22:17.238Z,16.00
2023-04-10T09:24:45.831Z,16.50
2023-04-10T09:27:32.343Z,16.40
2023-04-10T09:29:59.920Z,15.60
2023-04-10T09:32:38.292Z,15.90
2023-04-10T09:35:06.122Z,16.10
2023-04-10T09:37:36.826Z,16.10
2023-04-10T09:40:05.726Z,16.20
2023-04-10T09:42:35.138Z,16.50
2023-04-10T09:45:02.473Z,16.50
2023-04-10T09:47:30.024Z,16.40
2023-04-10T09:50:00.769Z,16.10
2023-04-10T09:52:30.245Z,16.30
2023-04-10T09:54:58.525Z,16.30
2023-04-10T09:57:28.846Z,16.10
2023-04-10T09:59:57.842Z,16.10
2023-04-10T10:02:29.827Z,16.10
2023-04-10T10:05:01.084Z,16.10
2023-04-10T10:07:29.936Z,16.10
2023-04-10T10:09:58.247Z,16.60
2023-04-10T10:12:36.090Z,16.20
2023-04-10T10:15:38.941Z,17.00
2023-04-10T10:18:33.073Z,16.90
2023-04-10T10:21:01.671Z,17.10
2023-04-10T10:23:29.388Z,17.50
2023-04-10T10:25:58.685Z,17.40
2023-04-10T10:28:28.127Z,17.10
2023-04-10T10:30:55.638Z,17.00
2023-04-10T10:33:23.511Z,17.10
2023-04-10T10:35:51.947Z,17.50
2023-04-10T10:38:19.575Z,17.60
2023-04-10T10:41:01.930Z,17.60
2023-04-10T10:43:52.903Z,17.60
2023-04-10T10:46:43.266Z,18.00
2023-04-10T10:49:10.270Z,18.20
2023-04-10T10:51:51.134Z,18.40
2023-04-10T10:54:35.454Z,18.50
2023-04-10T10:57:06.661Z,18.80
2023-04-10T10:59:48.892Z,18.90
2023-04-10T11:02:18.438Z,18.80
2023-04-10T11:04:47.286Z,18.40
2023-04-10T11:07:15.830Z,18.10
2023-04-10T11:09:48.899Z,18.00
2023-04-10T11:12:17.484Z,18.00
2023-04-10T11:14:57.059Z,17.80
2023-04-10T11:17:49.821Z,17.20
2023-04-10T11:20:21.024Z,17.20
2023-04-10T11:23:10.710Z,16.90
2023-04-10T11:25:52.205Z,16.80
2023-04-10T11:28:48.441Z,17.00
2023-04-10T11:31:22.990Z,17.10
2023-04-10T11:33:56.727Z,17.30
2023-04-10T11:36:24.602Z,17.50
2023-04-10T11:39:09.072Z,17.50
2023-04-10T11:41:43.557Z,17.90
2023-04-10T11:44:16.755Z,17.50
2023-04-10T11:46:48.018Z,18.00
2023-04-10T11:49:24.693Z,17.70
2023-04-10T11:51:52.564Z,18.10
2023-04-10T11:54:23.710Z,17.90
2023-04-10T11:57:09.623Z,17.70
2023-04-10T11:59:36.711Z,17.40
2023-04-10T12:02:08.103Z,17.80
2023-04-10T12:04:36.111Z,17.90
2023-04-10T12:07:03.513Z,17.70
2023-04-10T12:09:30.664Z,17.90
2023-04-10T12:12:08.476Z,17.40
2023-04-10T12:14:40.839Z,18.30
2023-04-10T12:17:10.265Z,18.40
2023-04-10T12:19:39.109Z,18.00
2023-04-10T12:22:06.806Z,17.20
2023-04-10T12:24:51.464Z,17.30
2023-04-10T12:27:23.332Z,17.40
2023-04-10T12:29:52.568Z,18.10
2023-04-10T12:32:22.892Z,17.50
2023-04-10T12:34:57.906Z,19.20
2023-04-10T12:37:26.254Z,18.70
2023-04-10T12:39:53.717Z,18.60
2023-04-10T12:42:23.912Z,19.10
2023-04-10T12:44:56.226Z,18.10
2023-04-10T12:47:24.286Z,17.80
2023-04-10T12:50:07.878Z,17.40
2023-04-10T12:52:42.251Z,17.70
2023-04-10T12:55:21.385Z,17.00
2023-04-10T12:57:49.381Z,17.20
2023-04-10T13:00:18.715Z,17.10
2023-04-10T13:02:50.764Z,17.60
2023-04-10T13:05:17.897Z,17.20
2023-04-10T13:07:44.983Z,17.50
2023-04-10T13:10:12.102Z,17.30
2023-04-10T13:12:40.731Z,17.20
2023-04-10T13:15:10.892Z,16.30
2023-04-10T13:17:38.173Z,16.50
2023-04-10T13:20:05.912Z,16.40
2023-04-10T13:22:32.858Z,16.80
2023-04-10T13:25:01.053Z,17.20
2023-04-10T13:27:28.104Z,17.50
2023-04-10T13:29:55.879Z,17.40
2023-04-10T13:32:23.037Z,17.60
2023-04-10T13:34:50.580Z,18.30
2023-04-10T13:37:17.549Z,18.40
2023-04-10T13:39:44.523Z,18.40
2023-04-10T13:42:12.201Z,18.50
2023-04-10T13:44:39.219Z,18.10
2023-04-10T13:47:06.756Z,18.40
2023-04-10T13:49:33.880Z,18.60
2023-04-10T13:52:01.130Z,18.50
2023-04-10T13:54:28.858Z,18.30
2023-04-10T13:56:56.882Z,17.90
2023-04-10T13:59:23.959Z,17.80
2023-04-10T14:01:53.850Z,18.30
2023-04-10T14:04:23.324Z,18.00
2023-04-10T14:06:52.019Z,18.20
2023-04-10T14:09:21.891Z,18.60
2023-04-10T14:11:48.927Z,18.80
2023-04-10T14:14:15.986Z,19.10
2023-04-10T14:16:43.212Z,19.00
2023-04-10T14:19:13.111Z,18.80
2023-04-10T14:21:41.070Z,19.10
2023-04-10T14:24:08.023Z,18.50
2023-04-10T14:26:34.980Z,18.30
2023-04-10T14:29:02.451Z,18.60
2023-04-10T14:31:29.802Z,18.40
2023-04-10T14:33:56.859Z,18.60
2023-04-10T14:36:24.107Z,18.90
2023-04-10T14:38:51.245Z,18.90
2023-04-10T14:41:18.352Z,18.70
2023-04-10T14:43:45.515Z,18.70
2023-04-10T14:46:12.487Z,18.70
2023-04-10T14:48:39.768Z,18.40
2023-04-10T14:51:13.018Z,18.50
2023-04-10T14:53:40.259Z,18.90
2023-04-10T14:56:12.803Z,18.70
2023-04-10T14:58:40.409Z,18.40
2023-04-10T15:01:14.245Z,19.10
2023-04-10T15:03:41.562Z,20.20
2023-04-10T15:06:08.636Z,20.60
2023-04-10T15:08:35.817Z,21.20
2023-04-10T15:11:05.264Z,21.20
2023-04-10T15:13:32.869Z,20.80
2023-04-10T15:16:00.690Z,19.90
2023-04-10T15:18:30.112Z,20.10
2023-04-10T15:20:57.252Z,20.40
2023-04-10T15:23:24.311Z,21.40
2023-04-10T15:25:54.463Z,21.70
2023-04-10T15:28:21.700Z,22.10
2023-04-10T15:30:50.147Z,22.00
2023-04-10T15:33:17.681Z,21.60
2023-04-10T15:35:51.094Z,21.50
2023-04-10T15:38:18.256Z,20.80
2023-04-10T15:40:45.487Z,22.00
2023-04-10T15:43:13.376Z,22.30
2023-04-10T15:45:40.484Z,22.30
2023-04-10T15:48:07.531Z,22.50
2023-04-10T15:50:35.703Z,22.30
2023-04-10T15:53:02.740Z,22.10
2023-04-10T15:55:30.077Z,21.70
2023-04-10T15:58:02.239Z,21.50
2023-04-10T16:00:31.033Z,21.80
2023-04-10T16:02:59.585Z,21.60
2023-04-10T16:05:27.154Z,21.50
2023-04-10T16:07:54.123Z,21.90
2023-04-10T16:10:21.561Z,22.30
2023-04-10T16:12:51.295Z,23.00
2023-04-10T16:15:18.388Z,23.20
2023-04-10T16:17:45.603Z,23.30
2023-04-10T16:20:13.045Z,22.60
2023-04-10T16:22:40.088Z,22.20
2023-04-10T16:25:07.647Z,22.30
2023-04-10T16:27:34.905Z,21.80
2023-04-10T16:30:02.161Z,21.50
2023-04-10T16:32:31.534Z,21.60
2023-04-10T16:34:59.173Z,21.80
2023-04-10T16:37:26.221Z,22.00
2023-04-10T16:39:55.493Z,21.80
2023-04-10T16:42:22.600Z,21.90
2023-04-10T16:44:49.583Z,22.10
2023-04-10T16:47:16.683Z,21.90
2023-04-10T16:49:45.866Z,22.00
2023-04-10T16:52:13.348Z,21.80
2023-04-10T16:54:40.866Z,21.90
2023-04-10T16:57:08.148Z,21.70
2023-04-10T16:59:36.439Z,21.40
2023-04-10T17:02:04.858Z,21.10
2023-04-10T17:04:32.086Z,21.00
2023-04-10T17:06:59.115Z,21.00
2023-04-10T17:09:26.177Z,21.00
2023-04-10T17:11:53.671Z,20.80
2023-04-10T17:14:21.168Z,20.80
2023-04-10T17:16:48.292Z,20.60
2023-04-10T17:19:15.619Z,20.70
2023-04-10T17:21:42.814Z,20.60
2023-04-10T17:24:09.865Z,20.60
2023-04-10T17:26:37.066Z,20.40
2023-04-10T17:29:04.211Z,20.30
2023-04-10T17:31:31.475Z,20.70
2023-04-10T17:33:58.797Z,20.50
2023-04-10T17:36:26.892Z,20.60
2023-04-10T17:38:54.350Z,20.70
2023-04-10T17:41:21.533Z,20.40
2023-04-10T17:43:52.173Z,20.20
2023-04-10T17:46:26.446Z,20.30
2023-04-10T17:48:54.211Z,20.10
2023-04-10T17:51:21.991Z,20.10
2023-04-10T17:53:49.075Z,20.00
2023-04-10T17:56:22.426Z,20.10
2023-04-10T17:58:52.728Z,20.20
2023-04-10T18:01:29.954Z,20.00
2023-04-10T18:03:58.028Z,20.40
2023-04-10T18:06:26.520Z,20.40
2023-04-10T18:08:53.746Z,20.40
2023-04-10T18:11:24.690Z,20.30
2023-04-10T18:13:51.834Z,20.20
2023-04-10T18:16:19.063Z,20.20
2023-04-10T18:18:46.209Z,20.20
2023-04-10T18:21:13.943Z,20.20
2023-04-10T18:23:41.121Z,20.20
2023-04-10T18:26:08.324Z,20.20
2023-04-10T18:28:37.233Z,20.00
2023-04-10T18:31:04.408Z,19.90
2023-04-10T18:33:31.537Z,19.90
2023-04-10T18:35:59.510Z,20.00
2023-04-10T18:38:27.148Z,20.20
2023-04-10T18:40:57.986Z,20.20
2023-04-10T18:43:27.703Z,20.10
2023-04-10T18:45:55.504Z,20.20
2023-04-10T18:48:22.737Z,20.40
2023-04-10T18:50:53.405Z,20.50
2023-04-10T18:53:21.571Z,20.30
2023-04-10T18:55:56.548Z,20.30
2023-04-10T18:58:23.668Z,20.30
2023-04-10T19:00:51.026Z,20.20
2023-04-10T19:03:18.571Z,20.50
2023-04-10T19:05:47.891Z,20.10
2023-04-10T19:08:18.334Z,20.30
2023-04-10T19:10:48.532Z,20.50
2023-04-10T19:13:15.859Z,20.50
2023-04-10T19:15:47.283Z,20.60
2023-04-10T19:18:15.878Z,20.50
2023-04-10T19:20:50.361Z,21.00
2023-04-10T19:23:19.451Z,22.30
2023-04-10T19:25:49.010Z,21.70
2023-04-10T19:28:16.485Z,21.60
2023-04-10T19:30:45.489Z,21.70
2023-04-10T19:33:12.833Z,21.70
2023-04-10T19:35:40.634Z,21.60
2023-04-10T19:38:08.067Z,21.50
2023-04-10T19:40:36.480Z,21.60
2023-04-10T19:43:03.694Z,21.40
2023-04-10T19:45:32.546Z,22.00
2023-04-10T19:48:00.306Z,22.20
2023-04-10T19:50:30.154Z,22.20
2023-04-10T19:52:58.110Z,21.80
2023-04-10T19:55:26.828Z,21.50
2023-04-10T19:57:54.815Z,21.40
2023-04-10T20:00:22.456Z,21.30
2023-04-10T20:02:55.805Z,21.10
2023-04-10T20:05:23.179Z,21.40
2023-04-10T20:07:50.894Z,21.90
2023-04-10T20:10:18.052Z,22.10
2023-04-10T20:12:45.022Z,21.80
2023-04-10T20:15:12.812Z,21.40
2023-04-10T20:17:39.930Z,21.70
2023-04-10T20:20:08.440Z,21.90
2023-04-10T20:22:36.161Z,21.70
2023-04-10T20:25:03.256Z,21.70
2023-04-10T20:27:30.644Z,21.70
2023-04-10T20:29:57.620Z,22.20
2023-04-10T20:32:26.980Z,22.40
2023-04-10T20:34:56.146Z,22.60
2023-04-10T20:37:23.328Z,22.90
2023-04-10T20:39:50.986Z,23.60
2023-04-10T20:42:18.296Z,23.50
2023-04-10T20:44:45.409Z,23.10
2023-04-10T20:47:13.179Z,22.50
2023-04-10T20:49:41.814Z,22.70
2023-04-10T20:52:09.976Z,22.40
2023-04-10T20:54:36.940Z,22.60
2023-04-10T20:57:06.070Z,23.10
2023-04-10T20:59:36.034Z,23.10
2023-04-10T21:02:03.268Z,23.50
2023-04-10T21:04:30.604Z,23.40
2023-04-10T21:06:57.591Z,23.20
2023-04-10T21:09:24.670Z,23.30
2023-04-10T21:11:51.729Z,23.50
2023-04-10T21:14:18.899Z,23.70
2023-04-10T21:16:46.217Z,23.90
2023-04-10T21:19:13.627Z,23.90
2023-04-10T21:21:41.014Z,24.40
2023-04-10T21:24:09.457Z,24.30
2023-04-10T21:26:36.529Z,24.50
2023-04-10T21:29:04.146Z,24.50
2023-04-10T21:31:31.164Z,24.30
2023-04-10T21:33:58.404Z,24.20
2023-04-10T21:36:26.600Z,24.50
2023-04-10T21:38:54.088Z,24.80
2023-04-10T21:41:22.744Z,24.80
2023-04-10T21:43:49.946Z,25.10
2023-04-10T21:46:17.080Z,25.40
2023-04-10T21:48:44.208Z,25.70
2023-04-10T21:51:11.377Z,25.40
2023-04-10T21:53:38.485Z,25.30
2023-04-10T21:56:06.295Z,25.30
2023-04-10T21:58:33.801Z,25.40
2023-04-10T22:01:01.310Z,25.40
2023-04-10T22:03:28.744Z,25.60
2023-04-10T22:05:56.557Z,25.90
2023-04-10T22:08:23.707Z,25.80
2023-04-10T22:10:51.315Z,25.90
2023-04-10T22:13:30.363Z,26.50
2023-04-10T22:15:58.851Z,26.30
2023-04-10T22:18:26.083Z,26.00
2023-04-10T22:20:53.500Z,26.00
2023-04-10T22:23:20.505Z,25.50
2023-04-10T22:25:47.512Z,25.80
2023-04-10T22:28:14.580Z,25.50
2023-04-10T22:30:42.042Z,25.80
2023-04-10T22:33:10.708Z,25.80
2023-04-10T22:35:38.050Z,26.30
2023-04-10T22:38:05.165Z,26.10
2023-04-10T22:40:32.247Z,26.10
2023-04-10T22:42:59.488Z,26.30
2023-04-10T22:45:27.543Z,26.10
2023-04-10T22:47:54.776Z,26.30
2023-04-10T22:50:22.018Z,26.50
2023-04-10T22:52:49.332Z,26.60
2023-04-10T22:55:16.581Z,27.30
2023-04-10T22:57:48.678Z,27.10
2023-04-10T23:00:16.375Z,27.70
2023-04-10T23:02:43.556Z,27.60
2023-04-10T23:05:10.788Z,27.70
2023-04-10T23:07:37.843Z,27.50
2023-04-10T23:10:05.241Z,28.20
2023-04-10T23:12:32.451Z,27.60
2023-04-10T23:14:59.618Z,27.70
2023-04-10T23:17:26.776Z,27.70
2023-04-10T23:19:54.740Z,27.40
2023-04-10T23:22:22.020Z,27.70
2023-04-10T23:24:54.577Z,26.90
2023-04-10T23:27:21.695Z,26.70
2023-04-10T23:29:49.256Z,27.20
2023-04-10T23:32:16.812Z,27.60
2023-04-10T23:34:44.102Z,27.40
2023-04-10T23:37:11.124Z,26.50
2023-04-10T23:39:38.134Z,26.40
2023-04-10T23:42:05.424Z,26.50
2023-04-10T23:44:32.448Z,26.70
2023-04-10T23:46:59.483Z,26.80
2023-04-10T23:49:26.598Z,26.90
2023-04-10T23:51:53.854Z,27.70
2023-04-10T23:54:21.053Z,26.80
2023-04-10T23:56:48.180Z,26.50
2023-04-10T23:59:17.091Z,26.80
